sensor_id;sensor_type;location;lat;lon;timestamp;noise_LAeq;noise_LA_min;noise_LA_max;noise_LA01;noise_LA95
63692;Laerm;49838;51.798;10.954;2023-04-09T00:00:46;29.78;27.56;39.56;;
63692;Laerm;49838;51.798;10.954;2023-04-09T00:03:14;33.22;28.04;46.47;;
63692;Laerm;49838;51.798;10.954;2023-04-09T00:05:41;34.59;28.68;52.64;;
63692;Laerm;49838;51.798;10.954;2023-04-09T00:08:09;33.15;27.82;56.71;;
63692;Laerm;49838;51.798;10.954;2023-04-09T00:10:36;29.84;27.47;45.26;;
63692;Laerm;49838;51.798;10.954;2023-04-09T00:13:03;47.92;27.90;64.12;;
63692;Laerm;49838;51.798;10.954;2023-04-09T00:15:32;48.92;27.87;66.22;;
63692;Laerm;49838;51.798;10.954;2023-04-09T00:17:59;30.41;27.60;38.15;;
63692;Laerm;49838;51.798;10.954;2023-04-09T00:20:26;30.58;27.88;39.72;;
63692;Laerm;49838;51.798;10.954;2023-04-09T00:22:54;31.41;28.03;42.98;;
63692;Laerm;49838;51.798;10.954;2023-04-09T00:25:21;54.87;27.30;74.82;;
63692;Laerm;49838;51.798;10.954;2023-04-09T00:27:48;29.83;27.49;37.07;;
63692;Laerm;49838;51.798;10.954;2023-04-09T00:30:16;30.76;27.58;43.99;;
63692;Laerm;49838;51.798;10.954;2023-04-09T00:32:44;29.48;27.45;36.99;;
63692;Laerm;49838;51.798;10.954;2023-04-09T00:35:12;30.69;27.93;40.75;;
63692;Laerm;49838;51.798;10.954;2023-04-09T00:37:39;29.62;27.83;35.69;;
63692;Laerm;49838;51.798;10.954;2023-04-09T00:40:07;30.88;28.25;35.29;;
63692;Laerm;49838;51.798;10.954;2023-04-09T00:42:35;30.10;27.84;34.90;;
63692;Laerm;49838;51.798;10.954;2023-04-09T00:45:03;28.76;27.30;33.12;;
63692;Laerm;49838;51.798;10.954;2023-04-09T00:47:31;29.68;27.23;34.95;;
63692;Laerm;49838;51.798;10.954;2023-04-09T00:50:01;29.01;27.40;36.39;;
63692;Laerm;49838;51.798;10.954;2023-04-09T00:52:29;29.23;27.36;36.61;;
63692;Laerm;49838;51.798;10.954;2023-04-09T00:54:58;29.09;27.36;33.11;;
63692;Laerm;49838;51.798;10.954;2023-04-09T00:57:25;30.11;27.23;36.41;;
63692;Laerm;49838;51.798;10.954;2023-04-09T00:59:54;29.32;27.47;35.91;;
63692;Laerm;49838;51.798;10.954;2023-04-09T01:02:21;29.12;27.50;34.13;;
63692;Laerm;49838;51.798;10.954;2023-04-09T01:04:49;28.49;27.28;31.83;;
63692;Laerm;49838;51.798;10.954;2023-04-09T01:07:25;54.66;27.41;74.77;;
63692;Laerm;49838;51.798;10.954;2023-04-09T01:10:01;31.56;27.26;40.78;;
63692;Laerm;49838;51.798;10.954;2023-04-09T01:12:37;30.86;26.77;52.26;;
63692;Laerm;49838;51.798;10.954;2023-04-09T01:15:10;29.24;27.05;45.14;;
63692;Laerm;49838;51.798;10.954;2023-04-09T01:17:43;30.09;26.89;37.34;;
63692;Laerm;49838;51.798;10.954;2023-04-09T01:20:13;28.83;26.81;40.78;;
63692;Laerm;49838;51.798;10.954;2023-04-09T01:22:56;29.52;27.08;40.29;;
63692;Laerm;49838;51.798;10.954;2023-04-09T01:25:42;45.41;27.01;64.60;;
63692;Laerm;49838;51.798;10.954;2023-04-09T01:28:20;28.63;26.75;36.94;;
63692;Laerm;49838;51.798;10.954;2023-04-09T01:30:50;29.48;26.89;47.58;;
63692;Laerm;49838;51.798;10.954;2023-04-09T01:33:20;33.32;27.30;54.25;;
63692;Laerm;49838;51.798;10.954;2023-04-09T01:35:49;32.49;26.89;59.87;;
63692;Laerm;49838;51.798;10.954;2023-04-09T01:38:19;54.03;27.16;73.52;;
63692;Laerm;49838;51.798;10.954;2023-04-09T01:40:47;32.12;26.61;49.02;;
63692;Laerm;49838;51.798;10.954;2023-04-09T01:43:18;28.97;26.74;36.53;;
63692;Laerm;49838;51.798;10.954;2023-04-09T01:45:46;29.50;26.73;42.47;;
63692;Laerm;49838;51.798;10.954;2023-04-09T01:48:14;29.61;27.00;38.37;;
63692;Laerm;49838;51.798;10.954;2023-04-09T01:50:42;28.90;26.72;38.71;;
63692;Laerm;49838;51.798;10.954;2023-04-09T01:53:10;29.79;26.90;42.16;;
63692;Laerm;49838;51.798;10.954;2023-04-09T01:55:37;28.39;26.64;32.05;;
63692;Laerm;49838;51.798;10.954;2023-04-09T01:58:05;28.97;26.81;33.94;;
63692;Laerm;49838;51.798;10.954;2023-04-09T02:00:35;29.65;26.95;40.98;;
63692;Laerm;49838;51.798;10.954;2023-04-09T02:03:05;30.02;26.99;44.54;;
63692;Laerm;49838;51.798;10.954;2023-04-09T02:05:37;29.64;26.99;41.29;;
63692;Laerm;49838;51.798;10.954;2023-04-09T02:08:06;28.99;26.97;40.49;;
63692;Laerm;49838;51.798;10.954;2023-04-09T02:10:34;50.25;27.01;67.13;;
63692;Laerm;49838;51.798;10.954;2023-04-09T02:13:04;46.01;26.78;66.97;;
63692;Laerm;49838;51.798;10.954;2023-04-09T02:15:37;58.54;27.12;79.26;;
63692;Laerm;49838;51.798;10.954;2023-04-09T02:18:19;30.10;27.50;41.32;;
63692;Laerm;49838;51.798;10.954;2023-04-09T02:20:47;31.26;27.38;51.74;;
63692;Laerm;49838;51.798;10.954;2023-04-09T02:23:14;50.59;27.01;71.13;;
63692;Laerm;49838;51.798;10.954;2023-04-09T02:25:42;44.35;27.30;64.84;;
63692;Laerm;49838;51.798;10.954;2023-04-09T02:28:09;32.06;26.91;59.40;;
63692;Laerm;49838;51.798;10.954;2023-04-09T02:30:37;51.10;26.99;69.10;;
63692;Laerm;49838;51.798;10.954;2023-04-09T02:33:05;31.53;27.15;42.17;;
63692;Laerm;49838;51.798;10.954;2023-04-09T02:35:32;35.32;27.58;63.18;;
63692;Laerm;49838;51.798;10.954;2023-04-09T02:38:00;31.48;27.43;40.47;;
63692;Laerm;49838;51.798;10.954;2023-04-09T02:40:28;30.93;27.37;41.91;;
63692;Laerm;49838;51.798;10.954;2023-04-09T02:42:56;30.42;26.98;38.85;;
63692;Laerm;49838;51.798;10.954;2023-04-09T02:45:23;30.56;27.10;39.78;;
63692;Laerm;49838;51.798;10.954;2023-04-09T02:47:52;29.49;26.99;39.82;;
63692;Laerm;49838;51.798;10.954;2023-04-09T02:50:19;47.99;27.83;64.58;;
63692;Laerm;49838;51.798;10.954;2023-04-09T02:52:46;31.17;28.00;39.30;;
63692;Laerm;49838;51.798;10.954;2023-04-09T02:55:14;31.75;27.43;41.24;;
63692;Laerm;49838;51.798;10.954;2023-04-09T02:57:41;32.83;27.52;48.09;;
63692;Laerm;49838;51.798;10.954;2023-04-09T03:00:09;29.61;27.02;37.65;;
63692;Laerm;49838;51.798;10.954;2023-04-09T03:02:37;30.39;27.33;39.67;;
63692;Laerm;49838;51.798;10.954;2023-04-09T03:05:06;32.94;28.24;45.57;;
63692;Laerm;49838;51.798;10.954;2023-04-09T03:07:34;31.87;27.42;43.55;;
63692;Laerm;49838;51.798;10.954;2023-04-09T03:10:01;41.60;27.53;57.55;;
63692;Laerm;49838;51.798;10.954;2023-04-09T03:12:28;36.81;28.15;53.21;;
63692;Laerm;49838;51.798;10.954;2023-04-09T03:14:55;55.02;28.42;74.26;;
63692;Laerm;49838;51.798;10.954;2023-04-09T03:17:23;37.82;28.19;53.68;;
63692;Laerm;49838;51.798;10.954;2023-04-09T03:19:52;54.62;28.09;73.51;;
63692;Laerm;49838;51.798;10.954;2023-04-09T03:22:20;46.27;28.27;61.26;;
63692;Laerm;49838;51.798;10.954;2023-04-09T03:24:47;46.55;29.59;61.53;;
63692;Laerm;49838;51.798;10.954;2023-04-09T03:27:15;46.54;28.80;63.93;;
63692;Laerm;49838;51.798;10.954;2023-04-09T03:29:42;46.68;28.90;62.63;;
63692;Laerm;49838;51.798;10.954;2023-04-09T03:32:09;46.97;28.58;63.13;;
63692;Laerm;49838;51.798;10.954;2023-04-09T03:34:36;47.07;29.05;61.66;;
63692;Laerm;49838;51.798;10.954;2023-04-09T03:37:03;47.37;28.42;63.87;;
63692;Laerm;49838;51.798;10.954;2023-04-09T03:39:32;47.34;29.93;62.31;;
63692;Laerm;49838;51.798;10.954;2023-04-09T03:41:59;46.34;30.30;62.10;;
63692;Laerm;49838;51.798;10.954;2023-04-09T03:44:26;47.37;30.37;62.13;;
63692;Laerm;49838;51.798;10.954;2023-04-09T03:46:54;48.00;30.06;62.40;;
63692;Laerm;49838;51.798;10.954;2023-04-09T03:49:21;47.64;30.63;62.35;;
63692;Laerm;49838;51.798;10.954;2023-04-09T03:51:48;47.94;30.74;64.33;;
63692;Laerm;49838;51.798;10.954;2023-04-09T03:54:15;51.77;31.89;67.33;;
63692;Laerm;49838;51.798;10.954;2023-04-09T03:56:44;51.91;31.41;67.15;;
63692;Laerm;49838;51.798;10.954;2023-04-09T03:59:11;55.03;34.06;70.78;;
63692;Laerm;49838;51.798;10.954;2023-04-09T04:01:38;52.84;33.33;69.03;;
63692;Laerm;49838;51.798;10.954;2023-04-09T04:04:05;55.00;32.92;69.11;;
63692;Laerm;49838;51.798;10.954;2023-04-09T04:06:33;55.00;33.94;68.15;;
63692;Laerm;49838;51.798;10.954;2023-04-09T04:09:00;54.41;32.91;67.95;;
63692;Laerm;49838;51.798;10.954;2023-04-09T04:11:28;49.63;31.44;61.62;;
63692;Laerm;49838;51.798;10.954;2023-04-09T04:13:57;52.44;31.89;69.76;;
63692;Laerm;49838;51.798;10.954;2023-04-09T04:16:24;43.77;31.36;56.38;;
63692;Laerm;49838;51.798;10.954;2023-04-09T04:18:51;42.87;32.06;57.47;;
63692;Laerm;49838;51.798;10.954;2023-04-09T04:21:18;42.77;31.64;54.86;;
63692;Laerm;49838;51.798;10.954;2023-04-09T04:23:46;42.12;30.40;54.81;;
63692;Laerm;49838;51.798;10.954;2023-04-09T04:26:13;42.47;30.46;56.77;;
63692;Laerm;49838;51.798;10.954;2023-04-09T04:28:40;41.67;31.17;55.15;;
63692;Laerm;49838;51.798;10.954;2023-04-09T04:31:09;42.17;30.78;56.19;;
63692;Laerm;49838;51.798;10.954;2023-04-09T04:33:38;42.09;31.53;56.65;;
63692;Laerm;49838;51.798;10.954;2023-04-09T04:36:06;49.66;30.01;67.88;;
63692;Laerm;49838;51.798;10.954;2023-04-09T04:38:34;51.32;29.08;70.08;;
63692;Laerm;49838;51.798;10.954;2023-04-09T04:41:02;42.01;29.15;56.48;;
63692;Laerm;49838;51.798;10.954;2023-04-09T04:43:29;41.23;29.59;55.04;;
63692;Laerm;49838;51.798;10.954;2023-04-09T04:45:57;46.65;29.04;63.26;;
63692;Laerm;49838;51.798;10.954;2023-04-09T04:48:27;40.90;28.99;54.96;;
63692;Laerm;49838;51.798;10.954;2023-04-09T04:50:55;40.94;30.79;53.14;;
63692;Laerm;49838;51.798;10.954;2023-04-09T04:53:22;54.65;30.06;72.52;;
63692;Laerm;49838;51.798;10.954;2023-04-09T04:55:50;52.75;30.39;67.66;;
63692;Laerm;49838;51.798;10.954;2023-04-09T04:58:17;50.33;29.86;68.07;;
63692;Laerm;49838;51.798;10.954;2023-04-09T05:00:45;41.55;30.33;56.17;;
63692;Laerm;49838;51.798;10.954;2023-04-09T05:03:12;41.53;29.96;57.09;;
63692;Laerm;49838;51.798;10.954;2023-04-09T05:05:41;42.22;29.34;57.06;;
63692;Laerm;49838;51.798;10.954;2023-04-09T05:08:08;42.19;30.32;57.92;;
63692;Laerm;49838;51.798;10.954;2023-04-09T05:10:35;40.80;29.10;61.14;;
63692;Laerm;49838;51.798;10.954;2023-04-09T05:13:03;40.44;29.48;57.01;;
63692;Laerm;49838;51.798;10.954;2023-04-09T05:15:30;51.24;29.66;69.10;;
63692;Laerm;49838;51.798;10.954;2023-04-09T05:17:57;42.24;30.31;57.51;;
63692;Laerm;49838;51.798;10.954;2023-04-09T05:20:26;51.83;28.99;70.23;;
63692;Laerm;49838;51.798;10.954;2023-04-09T05:22:55;51.88;29.21;71.13;;
63692;Laerm;49838;51.798;10.954;2023-04-09T05:25:22;40.24;29.51;62.28;;
63692;Laerm;49838;51.798;10.954;2023-04-09T05:27:49;39.84;30.89;54.93;;
63692;Laerm;49838;51.798;10.954;2023-04-09T05:30:16;41.70;29.86;57.76;;
63692;Laerm;49838;51.798;10.954;2023-04-09T05:32:44;44.22;30.07;66.75;;
63692;Laerm;49838;51.798;10.954;2023-04-09T05:35:11;43.64;31.25;58.66;;
63692;Laerm;49838;51.798;10.954;2023-04-09T05:37:38;40.66;29.44;58.95;;
63692;Laerm;49838;51.798;10.954;2023-04-09T05:40:08;38.60;29.72;52.35;;
63692;Laerm;49838;51.798;10.954;2023-04-09T05:42:35;44.06;30.78;62.82;;
63692;Laerm;49838;51.798;10.954;2023-04-09T05:45:03;39.02;28.75;53.73;;
63692;Laerm;49838;51.798;10.954;2023-04-09T05:47:31;38.91;28.36;54.57;;
63692;Laerm;49838;51.798;10.954;2023-04-09T05:49:58;40.51;29.40;56.25;;
63692;Laerm;49838;51.798;10.954;2023-04-09T05:52:25;38.70;31.04;58.57;;
63692;Laerm;49838;51.798;10.954;2023-04-09T05:54:52;37.73;30.38;50.45;;
63692;Laerm;49838;51.798;10.954;2023-04-09T05:57:21;53.76;29.80;73.25;;
63692;Laerm;49838;51.798;10.954;2023-04-09T05:59:48;38.45;30.55;53.75;;
63692;Laerm;49838;51.798;10.954;2023-04-09T06:02:16;53.50;31.10;72.83;;
63692;Laerm;49838;51.798;10.954;2023-04-09T06:04:43;36.69;30.69;49.89;;
63692;Laerm;49838;51.798;10.954;2023-04-09T06:07:10;38.60;30.20;51.28;;
63692;Laerm;49838;51.798;10.954;2023-04-09T06:09:37;39.11;30.53;55.02;;
63692;Laerm;49838;51.798;10.954;2023-04-09T06:12:04;42.95;32.43;57.13;;
63692;Laerm;49838;51.798;10.954;2023-04-09T06:14:33;38.71;30.04;55.52;;
63692;Laerm;49838;51.798;10.954;2023-04-09T06:17:00;49.41;32.69;66.17;;
63692;Laerm;49838;51.798;10.954;2023-04-09T06:19:28;40.57;32.98;54.73;;
63692;Laerm;49838;51.798;10.954;2023-04-09T06:21:55;58.42;31.58;77.82;;
63692;Laerm;49838;51.798;10.954;2023-04-09T06:24:23;50.65;32.69;68.99;;
63692;Laerm;49838;51.798;10.954;2023-04-09T06:26:50;37.72;31.68;47.30;;
63692;Laerm;49838;51.798;10.954;2023-04-09T06:29:17;63.29;32.25;84.61;;
63692;Laerm;49838;51.798;10.954;2023-04-09T06:31:45;46.61;32.91;65.79;;
63692;Laerm;49838;51.798;10.954;2023-04-09T06:34:13;42.98;32.65;58.79;;
63692;Laerm;49838;51.798;10.954;2023-04-09T06:36:40;43.83;33.77;55.21;;
63692;Laerm;49838;51.798;10.954;2023-04-09T06:39:09;50.04;33.83;67.37;;
63692;Laerm;49838;51.798;10.954;2023-04-09T06:41:36;56.88;33.19;74.86;;
63692;Laerm;49838;51.798;10.954;2023-04-09T06:44:03;45.35;33.09;57.25;;
63692;Laerm;49838;51.798;10.954;2023-04-09T06:46:30;51.59;32.80;67.03;;
63692;Laerm;49838;51.798;10.954;2023-04-09T06:48:59;44.64;33.46;61.11;;
63692;Laerm;49838;51.798;10.954;2023-04-09T06:51:26;53.22;34.50;70.62;;
63692;Laerm;49838;51.798;10.954;2023-04-09T06:53:53;51.10;37.67;66.42;;
63692;Laerm;49838;51.798;10.954;2023-04-09T06:56:20;42.75;33.00;66.80;;
63692;Laerm;49838;51.798;10.954;2023-04-09T06:58:47;41.87;33.50;53.91;;
63692;Laerm;49838;51.798;10.954;2023-04-09T07:01:15;52.69;33.40;70.29;;
63692;Laerm;49838;51.798;10.954;2023-04-09T07:03:43;44.43;33.54;59.52;;
63692;Laerm;49838;51.798;10.954;2023-04-09T07:06:11;50.46;35.26;68.16;;
63692;Laerm;49838;51.798;10.954;2023-04-09T07:08:39;52.92;34.92;71.67;;
63692;Laerm;49838;51.798;10.954;2023-04-09T07:11:09;55.95;34.18;71.70;;
63692;Laerm;49838;51.798;10.954;2023-04-09T07:13:36;52.74;35.62;72.19;;
63692;Laerm;49838;51.798;10.954;2023-04-09T07:16:04;43.82;34.05;56.58;;
63692;Laerm;49838;51.798;10.954;2023-04-09T07:18:31;44.05;36.75;60.57;;
63692;Laerm;49838;51.798;10.954;2023-04-09T07:20:58;43.71;34.59;55.15;;
63692;Laerm;49838;51.798;10.954;2023-04-09T07:23:29;54.40;37.65;74.77;;
63692;Laerm;49838;51.798;10.954;2023-04-09T07:25:56;50.15;35.36;64.67;;
63692;Laerm;49838;51.798;10.954;2023-04-09T07:28:23;47.61;36.04;67.25;;
63692;Laerm;49838;51.798;10.954;2023-04-09T07:30:52;53.67;36.94;68.46;;
63692;Laerm;49838;51.798;10.954;2023-04-09T07:33:19;43.53;36.59;64.04;;
63692;Laerm;49838;51.798;10.954;2023-04-09T07:35:47;57.68;36.61;78.35;;
63692;Laerm;49838;51.798;10.954;2023-04-09T07:38:14;42.68;36.51;51.87;;
63692;Laerm;49838;51.798;10.954;2023-04-09T07:40:43;44.83;36.85;56.47;;
63692;Laerm;49838;51.798;10.954;2023-04-09T07:43:11;54.63;38.79;70.35;;
63692;Laerm;49838;51.798;10.954;2023-04-09T07:45:38;51.65;39.26;66.75;;
63692;Laerm;49838;51.798;10.954;2023-04-09T07:48:05;49.80;37.89;66.31;;
63692;Laerm;49838;51.798;10.954;2023-04-09T07:50:33;54.63;36.03;71.55;;
63692;Laerm;49838;51.798;10.954;2023-04-09T07:53:01;44.69;37.87;54.79;;
63692;Laerm;49838;51.798;10.954;2023-04-09T07:55:28;50.88;38.46;66.49;;
63692;Laerm;49838;51.798;10.954;2023-04-09T07:57:57;52.16;37.83;71.27;;
63692;Laerm;49838;51.798;10.954;2023-04-09T08:00:24;47.78;38.67;64.39;;
63692;Laerm;49838;51.798;10.954;2023-04-09T08:02:51;44.76;37.48;54.98;;
63692;Laerm;49838;51.798;10.954;2023-04-09T08:05:19;54.95;35.88;73.89;;
63692;Laerm;49838;51.798;10.954;2023-04-09T08:07:46;55.89;36.08;75.31;;
63692;Laerm;49838;51.798;10.954;2023-04-09T08:10:16;53.76;35.56;70.50;;
63692;Laerm;49838;51.798;10.954;2023-04-09T08:12:43;42.83;34.90;63.37;;
63692;Laerm;49838;51.798;10.954;2023-04-09T08:15:12;43.17;35.81;55.96;;
63692;Laerm;49838;51.798;10.954;2023-04-09T08:17:39;54.28;36.72;72.51;;
63692;Laerm;49838;51.798;10.954;2023-04-09T08:20:07;49.87;36.99;66.00;;
63692;Laerm;49838;51.798;10.954;2023-04-09T08:22:35;44.72;35.50;66.50;;
63692;Laerm;49838;51.798;10.954;2023-04-09T08:25:05;53.08;37.11;70.03;;
63692;Laerm;49838;51.798;10.954;2023-04-09T08:27:32;57.89;36.58;72.03;;
63692;Laerm;49838;51.798;10.954;2023-04-09T08:30:01;62.93;36.01;84.80;;
63692;Laerm;49838;51.798;10.954;2023-04-09T08:32:30;41.93;35.49;54.92;;
63692;Laerm;49838;51.798;10.954;2023-04-09T08:34:57;51.88;36.40;69.09;;
63692;Laerm;49838;51.798;10.954;2023-04-09T08:37:24;56.90;36.36;76.14;;
63692;Laerm;49838;51.798;10.954;2023-04-09T08:39:55;54.05;37.60;74.14;;
63692;Laerm;49838;51.798;10.954;2023-04-09T08:42:24;51.53;36.33;66.05;;
63692;Laerm;49838;51.798;10.954;2023-04-09T08:44:52;57.15;37.62;70.84;;
63692;Laerm;49838;51.798;10.954;2023-04-09T08:47:20;44.19;36.36;59.88;;
63692;Laerm;49838;51.798;10.954;2023-04-09T08:49:49;56.39;36.64;71.45;;
63692;Laerm;49838;51.798;10.954;2023-04-09T08:52:16;54.90;35.84;69.61;;
63692;Laerm;49838;51.798;10.954;2023-04-09T08:54:46;53.62;39.34;69.45;;
63692;Laerm;49838;51.798;10.954;2023-04-09T08:57:14;56.02;37.11;68.94;;
63692;Laerm;49838;51.798;10.954;2023-04-09T08:59:41;55.96;37.89;68.96;;
63692;Laerm;49838;51.798;10.954;2023-04-09T09:02:09;57.05;37.63;73.56;;
63692;Laerm;49838;51.798;10.954;2023-04-09T09:04:43;64.69;37.49;84.35;;
63692;Laerm;49838;51.798;10.954;2023-04-09T09:07:13;52.34;37.86;69.67;;
63692;Laerm;49838;51.798;10.954;2023-04-09T09:09:49;56.71;36.84;77.62;;
63692;Laerm;49838;51.798;10.954;2023-04-09T09:12:32;54.17;36.12;70.54;;
63692;Laerm;49838;51.798;10.954;2023-04-09T09:15:00;55.73;36.48;69.94;;
63692;Laerm;49838;51.798;10.954;2023-04-09T09:17:28;57.16;36.49;73.98;;
63692;Laerm;49838;51.798;10.954;2023-04-09T09:19:55;55.20;37.60;70.88;;
63692;Laerm;49838;51.798;10.954;2023-04-09T09:22:24;49.96;37.25;66.44;;
63692;Laerm;49838;51.798;10.954;2023-04-09T09:24:52;49.19;35.71;65.36;;
63692;Laerm;49838;51.798;10.954;2023-04-09T09:27:32;58.77;37.42;71.43;;
63692;Laerm;49838;51.798;10.954;2023-04-09T09:30:02;46.96;35.33;62.35;;
63692;Laerm;49838;51.798;10.954;2023-04-09T09:32:30;55.30;36.67;71.14;;
63692;Laerm;49838;51.798;10.954;2023-04-09T09:35:00;59.69;40.78;74.90;;
63692;Laerm;49838;51.798;10.954;2023-04-09T09:37:30;58.17;38.61;72.71;;
63692;Laerm;49838;51.798;10.954;2023-04-09T09:39:58;55.59;36.70;75.95;;
63692;Laerm;49838;51.798;10.954;2023-04-09T09:42:26;45.49;37.84;57.10;;
63692;Laerm;49838;51.798;10.954;2023-04-09T09:44:53;58.00;36.87;76.09;;
63692;Laerm;49838;51.798;10.954;2023-04-09T09:47:21;57.62;37.62;74.96;;
63692;Laerm;49838;51.798;10.954;2023-04-09T09:49:50;53.95;37.85;69.76;;
63692;Laerm;49838;51.798;10.954;2023-04-09T09:52:22;57.10;37.28;72.23;;
63692;Laerm;49838;51.798;10.954;2023-04-09T09:54:52;57.44;39.81;71.50;;
63692;Laerm;49838;51.798;10.954;2023-04-09T09:57:23;58.17;40.42;77.36;;
63692;Laerm;49838;51.798;10.954;2023-04-09T09:59:53;61.23;40.60;89.74;;
63692;Laerm;49838;51.798;10.954;2023-04-09T10:02:22;53.84;37.51;73.23;;
63692;Laerm;49838;51.798;10.954;2023-04-09T10:04:51;43.86;35.84;72.51;;
63692;Laerm;49838;51.798;10.954;2023-04-09T10:07:19;56.33;36.18;72.89;;
63692;Laerm;49838;51.798;10.954;2023-04-09T10:09:48;54.89;35.61;68.69;;
63692;Laerm;49838;51.798;10.954;2023-04-09T10:12:18;46.58;35.69;63.08;;
63692;Laerm;49838;51.798;10.954;2023-04-09T10:14:49;58.42;35.48;74.16;;
63692;Laerm;49838;51.798;10.954;2023-04-09T10:17:17;55.83;35.77;72.47;;
63692;Laerm;49838;51.798;10.954;2023-04-09T10:19:52;56.50;36.34;72.85;;
63692;Laerm;49838;51.798;10.954;2023-04-09T10:22:24;55.27;34.02;69.35;;
63692;Laerm;49838;51.798;10.954;2023-04-09T10:24:52;50.12;35.57;70.96;;
63692;Laerm;49838;51.798;10.954;2023-04-09T10:27:22;54.56;34.95;71.43;;
63692;Laerm;49838;51.798;10.954;2023-04-09T10:29:49;58.62;36.35;76.12;;
63692;Laerm;49838;51.798;10.954;2023-04-09T10:32:18;48.42;35.61;71.83;;
63692;Laerm;49838;51.798;10.954;2023-04-09T10:34:48;55.62;36.65;70.47;;
63692;Laerm;49838;51.798;10.954;2023-04-09T10:37:20;53.50;35.38;71.25;;
63692;Laerm;49838;51.798;10.954;2023-04-09T10:39:48;56.23;36.36;69.98;;
63692;Laerm;49838;51.798;10.954;2023-04-09T10:42:18;54.58;37.99;70.15;;
63692;Laerm;49838;51.798;10.954;2023-04-09T10:45:03;52.72;36.80;70.55;;
63692;Laerm;49838;51.798;10.954;2023-04-09T10:47:32;58.83;35.76;73.42;;
63692;Laerm;49838;51.798;10.954;2023-04-09T10:50:15;56.45;36.08;72.97;;
63692;Laerm;49838;51.798;10.954;2023-04-09T10:52:43;54.53;36.15;72.48;;
63692;Laerm;49838;51.798;10.954;2023-04-09T10:55:35;50.49;35.77;69.04;;
63692;Laerm;49838;51.798;10.954;2023-04-09T10:58:03;57.43;36.50;72.29;;
63692;Laerm;49838;51.798;10.954;2023-04-09T11:00:36;67.57;36.73;87.73;;
63692;Laerm;49838;51.798;10.954;2023-04-09T11:03:19;55.22;37.11;69.97;;
63692;Laerm;49838;51.798;10.954;2023-04-09T11:05:49;51.30;38.53;68.51;;
63692;Laerm;49838;51.798;10.954;2023-04-09T11:08:17;56.26;38.69;74.04;;
63692;Laerm;49838;51.798;10.954;2023-04-09T11:10:47;50.18;37.98;65.78;;
63692;Laerm;49838;51.798;10.954;2023-04-09T11:13:15;60.17;41.90;75.45;;
63692;Laerm;49838;51.798;10.954;2023-04-09T11:15:44;50.70;41.16;66.31;;
63692;Laerm;49838;51.798;10.954;2023-04-09T11:18:15;46.13;39.36;56.85;;
63692;Laerm;49838;51.798;10.954;2023-04-09T11:20:45;54.74;38.90;69.80;;
63692;Laerm;49838;51.798;10.954;2023-04-09T11:23:16;51.33;40.02;66.48;;
63692;Laerm;49838;51.798;10.954;2023-04-09T11:25:48;51.97;39.28;67.74;;
63692;Laerm;49838;51.798;10.954;2023-04-09T11:28:16;57.15;37.54;73.98;;
63692;Laerm;49838;51.798;10.954;2023-04-09T11:30:45;53.19;38.59;72.12;;
63692;Laerm;49838;51.798;10.954;2023-04-09T11:33:13;59.92;37.32;78.57;;
63692;Laerm;49838;51.798;10.954;2023-04-09T11:35:40;53.31;38.62;66.48;;
63692;Laerm;49838;51.798;10.954;2023-04-09T11:38:08;57.22;38.10;74.27;;
63692;Laerm;49838;51.798;10.954;2023-04-09T11:40:36;56.76;39.75;75.02;;
63692;Laerm;49838;51.798;10.954;2023-04-09T11:43:08;52.77;39.31;74.58;;
63692;Laerm;49838;51.798;10.954;2023-04-09T11:45:38;44.64;37.47;62.67;;
63692;Laerm;49838;51.798;10.954;2023-04-09T11:48:07;52.89;40.72;65.80;;
63692;Laerm;49838;51.798;10.954;2023-04-09T11:50:35;56.66;39.72;73.32;;
63692;Laerm;49838;51.798;10.954;2023-04-09T11:53:14;53.26;39.83;71.61;;
63692;Laerm;49838;51.798;10.954;2023-04-09T11:55:42;55.22;38.74;70.68;;
63692;Laerm;49838;51.798;10.954;2023-04-09T11:58:12;49.17;38.55;66.27;;
63692;Laerm;49838;51.798;10.954;2023-04-09T12:00:40;44.07;38.61;59.67;;
63692;Laerm;49838;51.798;10.954;2023-04-09T12:03:09;55.71;38.73;70.74;;
63692;Laerm;49838;51.798;10.954;2023-04-09T12:05:36;56.35;37.86;72.39;;
63692;Laerm;49838;51.798;10.954;2023-04-09T12:08:06;47.22;37.72;65.41;;
63692;Laerm;49838;51.798;10.954;2023-04-09T12:10:36;46.24;37.01;63.59;;
63692;Laerm;49838;51.798;10.954;2023-04-09T12:13:06;45.56;37.59;60.99;;
63692;Laerm;49838;51.798;10.954;2023-04-09T12:15:37;49.17;38.81;64.14;;
63692;Laerm;49838;51.798;10.954;2023-04-09T12:18:08;55.76;38.35;72.04;;
63692;Laerm;49838;51.798;10.954;2023-04-09T12:20:37;50.10;37.56;68.60;;
63692;Laerm;49838;51.798;10.954;2023-04-09T12:23:06;56.73;39.18;73.26;;
63692;Laerm;49838;51.798;10.954;2023-04-09T12:25:36;45.32;38.37;58.09;;
63692;Laerm;49838;51.798;10.954;2023-04-09T12:28:05;57.43;40.06;71.64;;
63692;Laerm;49838;51.798;10.954;2023-04-09T12:30:33;58.40;40.24;75.31;;
63692;Laerm;49838;51.798;10.954;2023-04-09T12:33:01;54.78;40.81;75.64;;
63692;Laerm;49838;51.798;10.954;2023-04-09T12:35:30;50.67;39.09;65.77;;
63692;Laerm;49838;51.798;10.954;2023-04-09T12:37:59;55.56;41.77;69.11;;
63692;Laerm;49838;51.798;10.954;2023-04-09T12:40:26;55.86;40.08;75.47;;
63692;Laerm;49838;51.798;10.954;2023-04-09T12:42:54;58.14;37.39;74.01;;
63692;Laerm;49838;51.798;10.954;2023-04-09T12:45:21;57.39;39.00;69.32;;
63692;Laerm;49838;51.798;10.954;2023-04-09T12:47:49;56.52;40.53;74.90;;
63692;Laerm;49838;51.798;10.954;2023-04-09T12:50:16;56.85;40.30;70.78;;
63692;Laerm;49838;51.798;10.954;2023-04-09T12:52:45;47.50;39.23;58.76;;
63692;Laerm;49838;51.798;10.954;2023-04-09T12:55:13;53.96;39.37;69.30;;
63692;Laerm;49838;51.798;10.954;2023-04-09T12:57:43;50.35;40.98;64.44;;
63692;Laerm;49838;51.798;10.954;2023-04-09T13:00:13;57.50;40.61;72.77;;
63692;Laerm;49838;51.798;10.954;2023-04-09T13:02:40;57.89;39.95;74.60;;
63692;Laerm;49838;51.798;10.954;2023-04-09T13:05:08;56.99;40.86;70.93;;
63692;Laerm;49838;51.798;10.954;2023-04-09T13:07:35;56.24;40.54;73.48;;
63692;Laerm;49838;51.798;10.954;2023-04-09T13:10:05;55.16;37.99;72.84;;
63692;Laerm;49838;51.798;10.954;2023-04-09T13:12:32;51.39;37.91;65.90;;
63692;Laerm;49838;51.798;10.954;2023-04-09T13:14:59;54.33;38.69;72.79;;
63692;Laerm;49838;51.798;10.954;2023-04-09T13:17:27;50.01;38.49;63.40;;
63692;Laerm;49838;51.798;10.954;2023-04-09T13:19:54;51.10;37.36;67.35;;
63692;Laerm;49838;51.798;10.954;2023-04-09T13:22:22;52.30;37.52;69.22;;
63692;Laerm;49838;51.798;10.954;2023-04-09T13:24:49;55.77;37.55;74.44;;
63692;Laerm;49838;51.798;10.954;2023-04-09T13:27:19;42.95;37.57;52.79;;
63692;Laerm;49838;51.798;10.954;2023-04-09T13:29:49;53.46;40.25;67.26;;
63692;Laerm;49838;51.798;10.954;2023-04-09T13:32:16;58.40;41.30;72.46;;
63692;Laerm;49838;51.798;10.954;2023-04-09T13:34:45;55.15;38.49;74.48;;
63692;Laerm;49838;51.798;10.954;2023-04-09T13:37:13;52.45;40.13;66.01;;
63692;Laerm;49838;51.798;10.954;2023-04-09T13:39:40;55.75;38.70;72.31;;